Time;durP1;ratioP1;P1;durP2;ratioP2;P2;SDS_P1;SDS_P2;PMS_P1;PMS_P2;Temp;Humidity;BMP_temperature;BMP_pressure;BME280_temperature;BME280_humidity;BME280_pressure;Samples;Min_cycle;Max_cycle;Signal;HPM_P1;HPM_P2
2022/05/17 00:01:17;;;;;;;13.45;1.35;;;;;;;17.55;74.20;101444.78;7387221;19;20195;-68
2022/05/17 00:03:44;;;;;;;7.88;1.30;;;;;;;17.53;73.63;101438.78;7389636;19;20551;-70
2022/05/17 00:06:18;;;;;;;13.43;1.20;;;;;;;17.52;73.83;101439.84;7388004;19;20231;-69
2022/05/17 00:08:48;;;;;;;10.30;1.10;;;;;;;17.53;74.24;101441.47;7391058;19;20018;-69
2022/05/17 00:11:15;;;;;;;7.93;0.85;;;;;;;17.53;74.26;101444.94;7388741;19;20026;-69
2022/05/17 00:13:43;;;;;;;6.60;1.13;;;;;;;17.52;74.31;101445.16;7389892;19;20090;-68
2022/05/17 00:16:22;;;;;;;12.88;1.10;;;;;;;17.50;74.32;101442.66;7390515;19;20023;-68
2022/05/17 00:18:50;;;;;;;10.88;2.58;;;;;;;17.47;74.89;101439.56;7388497;19;20041;-69
2022/05/17 00:21:17;;;;;;;7.63;1.48;;;;;;;17.46;76.83;101446.72;7385270;19;20022;-68
2022/05/17 00:23:44;;;;;;;11.48;1.27;;;;;;;17.45;76.09;101441.56;7388643;19;20010;-69
2022/05/17 00:26:17;;;;;;;10.15;1.20;;;;;;;17.43;75.66;101432.91;7387035;19;20016;-69
2022/05/17 00:28:44;;;;;;;10.77;1.17;;;;;;;17.43;75.60;101433.75;7392125;19;20010;-68
2022/05/17 00:31:11;;;;;;;18.88;2.60;;;;;;;17.39;75.89;101435.13;7388283;19;20093;-68
2022/05/17 00:33:38;;;;;;;15.55;1.40;;;;;;;17.39;77.31;101440.44;7390938;19;20035;-71
2022/05/17 00:36:22;;;;;;;12.93;1.50;;;;;;;17.41;76.83;101435.78;7388512;19;20336;-69
2022/05/17 00:38:49;;;;;;;10.07;1.30;;;;;;;17.41;76.20;101427.81;7390571;19;20010;-69
2022/05/17 00:41:16;;;;;;;14.65;1.35;;;;;;;17.37;76.12;101436.34;7387504;19;20015;-68
2022/05/17 00:46:39;;;;;;;9.20;0.80;;;;;;;17.30;76.83;101438.06;7389490;19;20083;-69
2022/05/17 00:49:20;;;;;;;4.63;0.70;;;;;;;17.27;76.71;101428.59;7386149;19;20022;-69
2022/05/17 00:51:47;;;;;;;10.15;1.30;;;;;;;17.24;77.07;101434.28;7391998;19;20283;-69
2022/05/17 00:54:17;;;;;;;12.98;1.50;;;;;;;17.22;77.28;101436.28;7387973;19;20543;-68
2022/05/17 00:56:52;;;;;;;13.30;1.90;;;;;;;17.18;77.38;101437.66;7389885;19;20006;-68
2022/05/17 00:59:19;;;;;;;12.60;1.80;;;;;;;17.18;78.00;101439.50;7389888;19;20026;-69
2022/05/17 01:01:46;;;;;;;11.60;1.48;;;;;;;17.15;78.13;101432.72;7386550;19;20050;-71
2022/05/17 01:04:23;;;;;;;10.07;0.80;;;;;;;17.14;77.85;101424.91;7389821;19;20031;-68
2022/05/17 01:07:00;;;;;;;13.52;1.13;;;;;;;17.07;77.90;101430.94;7386407;19;20014;-68
2022/05/17 01:09:27;;;;;;;6.10;0.93;;;;;;;17.02;77.80;101429.81;7389189;19;20316;-68
2022/05/17 01:11:54;;;;;;;9.43;1.35;;;;;;;16.96;78.20;101434.06;7387069;19;20467;-69
2022/05/17 01:17:08;;;;;;;11.77;1.13;;;;;;;16.93;78.90;101434.41;7386996;19;20017;-68
2022/05/17 01:19:39;;;;;;;9.27;0.93;;;;;;;16.93;78.82;101428.25;7386219;19;20423;-70
2022/05/17 01:22:06;;;;;;;12.93;1.13;;;;;;;16.90;78.66;101431.28;7385568;19;20010;-68
2022/05/17 01:24:33;;;;;;;11.00;1.38;;;;;;;16.84;79.07;101424.00;7387226;19;20186;-68
2022/05/17 01:27:24;;;;;;;13.32;3.55;;;;;;;16.83;80.91;101430.31;7386965;19;20518;-67
2022/05/17 01:29:52;;;;;;;12.50;1.10;;;;;;;16.82;79.92;101428.66;7389796;19;20035;-69
2022/05/17 01:32:19;;;;;;;6.80;0.95;;;;;;;16.80;80.00;101434.19;7393770;19;20329;-69
2022/05/17 01:34:46;;;;;;;9.98;1.17;;;;;;;16.74;79.78;101429.56;7393901;19;20015;-69
2022/05/17 01:37:14;;;;;;;10.30;1.30;;;;;;;16.73;80.28;101427.09;7395226;19;20046;-70
2022/05/17 01:39:42;;;;;;;14.50;1.00;;;;;;;16.73;80.85;101427.09;7392713;19;20302;-69
2022/05/17 01:42:10;;;;;;;9.27;1.65;;;;;;;16.76;82.83;101426.75;7391796;19;20037;-68
2022/05/17 01:44:39;;;;;;;13.18;1.27;;;;;;;16.73;81.27;101422.59;7395297;19;20049;-68
2022/05/17 01:47:07;;;;;;;14.88;1.40;;;;;;;16.73;81.03;101425.25;7391227;19;20046;-69
2022/05/17 01:49:34;;;;;;;12.65;0.85;;;;;;;16.72;80.97;101420.13;7394108;19;20007;-68
2022/05/17 01:52:00;;;;;;;7.82;0.90;;;;;;;16.67;81.12;101426.78;7396232;19;20086;-68
2022/05/17 01:54:27;;;;;;;7.63;0.90;;;;;;;16.66;81.09;101414.50;7394855;19;20017;-68
2022/05/17 01:56:56;;;;;;;6.65;0.90;;;;;;;16.62;81.26;101429.16;7397654;19;20018;-68
2022/05/17 01:59:23;;;;;;;5.80;0.98;;;;;;;16.62;81.46;101423.84;7393681;19;20476;-68
2022/05/17 02:01:50;;;;;;;9.23;0.95;;;;;;;16.59;81.19;101418.91;7392815;19;20107;-69
2022/05/17 02:04:17;;;;;;;16.33;1.02;;;;;;;16.59;81.33;101418.91;7392039;19;20030;-70
2022/05/17 02:06:45;;;;;;;11.60;1.23;;;;;;;16.55;81.27;101411.44;7392950;19;20014;-66
2022/05/17 02:09:12;;;;;;;10.73;1.25;;;;;;;16.51;81.42;101404.78;7393808;19;20025;-69
2022/05/17 02:11:38;;;;;;;13.82;2.45;;;;;;;16.50;82.44;101408.47;7392481;19;20015;-67
2022/05/17 02:14:06;;;;;;;11.48;0.95;;;;;;;16.52;82.58;101409.09;7391773;19;20011;-69
2022/05/17 02:16:36;;;;;;;17.52;1.67;;;;;;;16.49;82.23;101412.97;7397214;19;20451;-68
2022/05/17 02:19:06;;;;;;;10.00;0.70;;;;;;;16.49;81.82;101407.66;7390889;19;20022;-68
2022/05/17 02:21:35;;;;;;;13.65;0.95;;;;;;;16.43;82.01;101410.16;7395717;19;20451;-69
2022/05/17 02:24:03;;;;;;;12.25;0.85;;;;;;;16.41;82.29;101412.16;7393003;19;20121;-69
2022/05/17 02:26:30;;;;;;;11.25;0.93;;;;;;;16.39;82.49;101400.91;7394744;19;20006;-69
2022/05/17 02:28:57;;;;;;;9.18;1.25;;;;;;;16.42;82.67;101409.34;7392240;19;20493;-68
2022/05/17 02:31:25;;;;;;;7.80;0.77;;;;;;;16.42;82.54;101404.03;7393289;19;20013;-68
2022/05/17 02:33:52;;;;;;;11.75;0.77;;;;;;;16.41;82.34;101409.50;7391742;19;20007;-68
2022/05/17 02:36:21;;;;;;;8.98;0.70;;;;;;;16.37;82.74;101411.69;7392074;19;20029;-68
2022/05/17 02:38:49;;;;;;;11.32;1.40;;;;;;;16.36;82.59;101402.06;7392003;19;20029;-70
2022/05/17 02:41:19;;;;;;;11.80;4.63;;;;;;;16.36;83.69;101403.91;7391179;19;20033;-68
2022/05/17 02:43:47;;;;;;;9.68;1.20;;;;;;;16.37;83.91;101409.03;7389666;19;20014;-68
2022/05/17 02:46:28;;;;;;;10.10;0.70;;;;;;;16.33;83.18;101401.59;7392987;19;20132;-68
2022/05/17 02:48:54;;;;;;;10.35;0.85;;;;;;;16.26;83.36;101401.47;7391679;19;20026;-68
2022/05/17 02:51:21;;;;;;;9.30;1.25;;;;;;;16.25;83.31;101403.31;7390851;19;20007;-69
2022/05/17 02:53:48;;;;;;;14.23;1.33;;;;;;;16.25;83.46;101410.47;7395113;19;20014;-68
2022/05/17 02:56:20;;;;;;;16.30;5.30;;;;;;;16.29;85.43;101406.47;7391167;19;20038;-68
2022/05/17 02:58:47;;;;;;;7.93;2.30;;;;;;;16.33;84.59;101405.09;7391525;19;20019;-68
2022/05/17 03:01:14;;;;;;;7.93;1.08;;;;;;;16.32;83.63;101407.91;7391902;19;20015;-67
2022/05/17 03:03:42;;;;;;;12.45;1.00;;;;;;;16.30;83.19;101408.13;7389171;19;20013;-69
2022/05/17 03:06:24;;;;;;;7.50;1.35;;;;;;;16.27;83.50;101405.78;7390819;19;20018;-68
2022/05/17 03:08:55;;;;;;;10.13;0.80;;;;;;;16.26;83.32;101404.97;7392025;19;20018;-69
2022/05/17 03:11:23;;;;;;;13.00;2.60;;;;;;;16.30;83.50;101404.63;7390574;19;20510;-69
2022/05/17 03:13:50;;;;;;;10.60;0.90;;;;;;;16.31;84.09;101404.44;7391489;19;20021;-68
2022/05/17 03:16:17;;;;;;;11.60;0.95;;;;;;;16.33;83.25;101399.78;7392704;19;20010;-69
2022/05/17 03:18:46;;;;;;;10.68;1.13;;;;;;;16.31;83.27;101406.25;7392603;19;20788;-68
2022/05/17 03:21:13;;;;;;;15.20;1.05;;;;;;;16.31;83.27;101401.78;7391597;19;20003;-68
2022/05/17 03:23:41;;;;;;;12.55;1.10;;;;;;;16.29;83.25;101406.47;7391080;19;20026;-68
2022/05/17 03:26:08;;;;;;;11.13;1.10;;;;;;;16.30;83.45;101402.81;7392604;19;20037;-68
2022/05/17 03:28:40;;;;;;;11.48;1.10;;;;;;;16.33;83.55;101402.44;7388543;19;20021;-69
2022/05/17 03:31:09;;;;;;;10.80;0.90;;;;;;;16.37;83.08;101408.22;7388463;19;20396;-69
2022/05/17 03:33:37;;;;;;;11.10;0.85;;;;;;;16.35;82.70;101404.94;7389180;19;20385;-68
2022/05/17 03:36:07;;;;;;;13.43;1.50;;;;;;;16.33;82.87;101404.25;7388476;19;20017;-68
2022/05/17 03:38:40;;;;;;;7.38;0.95;;;;;;;16.35;82.58;101403.09;7393478;19;20011;-68
2022/05/17 03:41:08;;;;;;;11.13;0.73;;;;;;;16.35;82.45;101407.59;7394379;19;20018;-68
2022/05/17 03:43:35;;;;;;;8.40;1.25;;;;;;;16.39;83.37;101408.88;7389356;19;20044;-68
2022/05/17 03:46:06;;;;;;;11.50;1.10;;;;;;;16.39;82.98;101406.22;7389255;19;20033;-69
2022/05/17 03:48:33;;;;;;;9.50;0.88;;;;;;;16.39;82.14;101401.75;7390041;19;20073;-67
2022/05/17 03:50:59;;;;;;;14.68;1.05;;;;;;;16.41;82.04;101404.19;7387908;19;20099;-69
2022/05/17 03:53:26;;;;;;;12.65;1.00;;;;;;;16.38;82.16;101397.44;7389229;19;20511;-70
2022/05/17 03:55:54;;;;;;;11.07;1.48;;;;;;;16.34;82.16;101406.75;7393915;19;20045;-68
2022/05/17 03:58:21;;;;;;;13.73;1.02;;;;;;;16.35;83.71;101402.28;7391501;19;20018;-69
2022/05/17 04:00:48;;;;;;;10.05;1.13;;;;;;;16.32;82.80;101398.13;7393897;19;20038;-69
2022/05/17 04:03:18;;;;;;;9.27;1.13;;;;;;;16.33;82.39;101398.94;7386408;19;20338;-69
2022/05/17 04:05:46;;;;;;;8.43;1.45;;;;;;;16.30;82.48;101409.94;7391849;19;20655;-69
2022/05/17 04:08:13;;;;;;;7.78;0.70;;;;;;;16.30;82.47;101409.94;7390812;19;20018;-68
2022/05/17 04:10:41;;;;;;;7.43;0.75;;;;;;;16.26;82.66;101401.47;7392604;19;20038;-68
2022/05/17 04:13:08;;;;;;;9.00;2.72;;;;;;;16.26;83.04;101406.78;7392704;19;20480;-68
2022/05/17 04:15:35;;;;;;;11.45;1.05;;;;;;;16.30;83.46;101407.28;7389973;19;20038;-68
2022/05/17 04:18:03;;;;;;;13.73;1.30;;;;;;;16.31;82.98;101409.75;7389712;19;20015;-69
2022/05/17 04:20:31;;;;;;;7.72;1.08;;;;;;;16.29;83.03;101411.75;7390686;19;20018;-69
2022/05/17 04:22:58;;;;;;;10.35;1.10;;;;;;;16.29;82.80;101408.28;7389219;19;20038;-70
2022/05/17 04:25:32;;;;;;;9.73;1.67;;;;;;;16.26;83.20;101399.66;7391449;19;20018;-69
2022/05/17 04:27:59;;;;;;;13.63;4.15;;;;;;;16.27;83.11;101400.47;7391204;19;20010;-68
2022/05/17 04:30:26;;;;;;;14.13;1.52;;;;;;;16.34;85.51;101403.28;7387469;19;20134;-67
2022/05/17 04:32:53;;;;;;;6.68;0.95;;;;;;;16.36;83.73;101410.03;7388800;19;20051;-68
2022/05/17 04:35:20;;;;;;;13.93;1.13;;;;;;;16.36;82.89;101411.88;7386378;19;20039;-67
2022/05/17 04:37:49;;;;;;;8.35;0.85;;;;;;;16.36;82.72;101412.69;7389636;19;20046;-69
2022/05/17 04:40:17;;;;;;;4.97;0.90;;;;;;;16.36;82.67;101409.22;7389009;19;20103;-67
2022/05/17 04:42:46;;;;;;;6.95;0.90;;;;;;;16.34;82.88;101411.25;7391211;19;20013;-68
2022/05/17 04:45:15;;;;;;;10.50;1.85;;;;;;;16.41;85.30;101407.69;7388258;19;20648;-68
2022/05/17 04:47:44;;;;;;;7.07;1.05;;;;;;;16.45;84.04;101413.50;7386887;19;20365;-68
2022/05/17 04:50:13;;;;;;;11.05;0.93;;;;;;;16.46;83.32;101409.81;7387076;19;20018;-68
2022/05/17 04:52:40;;;;;;;13.05;1.52;;;;;;;16.47;83.26;101417.59;7386815;19;20007;-68
2022/05/17 04:55:09;;;;;;;12.38;1.33;;;;;;;16.47;82.75;101422.94;7388204;19;20014;-68
2022/05/17 04:57:37;;;;;;;7.65;0.90;;;;;;;16.48;83.01;101413.97;7388075;19;20006;-69
2022/05/17 05:00:07;;;;;;;10.10;2.05;;;;;;;16.55;84.79;101414.91;7393010;19;20717;-67
2022/05/17 05:02:34;;;;;;;7.97;0.90;;;;;;;16.61;83.83;101416.03;7388975;19;20129;-67
2022/05/17 05:05:02;;;;;;;7.05;0.90;;;;;;;16.66;83.40;101419.81;7386027;19;20024;-67
2022/05/17 05:07:30;;;;;;;6.40;1.30;;;;;;;16.67;82.67;101408.19;7386196;19;20054;-69
2022/05/17 05:09:57;;;;;;;9.70;0.93;;;;;;;16.71;82.45;101415.81;7390556;19;20038;-70
2022/05/17 05:12:23;;;;;;;9.05;1.02;;;;;;;16.73;82.43;101409.31;7387304;19;20141;-68
2022/05/17 05:14:50;;;;;;;6.63;1.17;;;;;;;16.75;82.50;101417.13;7390826;19;20668;-67
2022/05/17 05:17:18;;;;;;;4.13;0.70;;;;;;;16.79;82.62;101418.41;7386001;19;20033;-69
2022/05/17 05:19:45;;;;;;;5.47;0.70;;;;;;;16.83;82.39;101409.91;7385791;19;20014;-68
2022/05/17 05:22:12;;;;;;;12.68;1.13;;;;;;;16.85;82.31;101412.38;7389717;19;20006;-69
2022/05/17 05:24:38;;;;;;;10.93;0.93;;;;;;;16.88;82.15;101427.97;7384829;19;20014;-69
2022/05/17 05:27:06;;;;;;;8.05;0.82;;;;;;;16.92;81.97;101422.09;7390302;19;20046;-70
2022/05/17 05:29:34;;;;;;;9.27;1.38;;;;;;;16.92;81.77;101424.75;7386131;19;20006;-68
2022/05/17 05:32:01;;;;;;;8.20;1.38;;;;;;;16.97;82.12;101418.91;7387987;19;20007;-69
2022/05/17 05:34:29;;;;;;;7.05;0.95;;;;;;;16.97;81.76;101414.41;7387345;19;20007;-69
2022/05/17 05:36:56;;;;;;;6.07;0.80;;;;;;;17.01;81.31;101420.22;7386354;19;20022;-68
2022/05/17 05:39:23;;;;;;;9.05;0.70;;;;;;;17.03;81.88;101426.16;7384455;19;20018;-69
2022/05/17 05:41:52;;;;;;;5.97;1.33;;;;;;;17.02;81.95;101421.84;7385140;19;20014;-67
2022/05/17 05:44:20;;;;;;;9.45;0.88;;;;;;;17.06;81.79;101426.66;7385501;19;20439;-68
2022/05/17 05:46:47;;;;;;;11.98;1.10;;;;;;;17.11;81.62;101426.13;7388820;19;20014;-69
2022/05/17 05:49:15;;;;;;;8.50;0.80;;;;;;;17.19;81.43;101430.50;7389315;19;20086;-69
2022/05/17 05:51:42;;;;;;;9.25;0.95;;;;;;;17.23;81.16;101424.66;7386968;19;20006;-69
2022/05/17 05:54:09;;;;;;;7.60;0.70;;;;;;;17.27;80.62;101427.78;7384483;19;20433;-69
2022/05/17 05:56:38;;;;;;;8.07;0.90;;;;;;;17.27;80.70;101427.78;7385252;19;20014;-68
2022/05/17 05:59:18;;;;;;;11.45;0.75;;;;;;;17.30;80.86;101430.91;7384978;19;20077;-70
2022/05/17 06:01:46;;;;;;;8.70;1.10;;;;;;;17.32;80.78;101433.41;7386902;19;20316;-70
2022/05/17 06:04:13;;;;;;;6.65;1.10;;;;;;;17.37;81.57;101439.00;7386145;19;20015;-69
2022/05/17 06:06:42;;;;;;;12.30;1.38;;;;;;;17.41;81.08;101435.78;7384947;19;20010;-67
2022/05/17 06:09:09;;;;;;;5.07;0.80;;;;;;;17.45;81.10;101437.06;7386565;19;20018;-68
2022/05/17 06:11:36;;;;;;;10.63;1.00;;;;;;;17.45;81.06;101437.06;7383037;19;20026;-69
2022/05/17 06:14:04;;;;;;;4.85;0.50;;;;;;;17.46;81.64;101441.38;7386863;19;20011;-69
2022/05/17 06:16:41;;;;;;;4.95;0.70;;;;;;;17.48;81.59;101442.00;7389584;19;20038;-70
2022/05/17 06:19:08;;;;;;;8.93;1.30;;;;;;;17.52;81.95;101448.63;7394165;19;20126;-68
2022/05/17 06:21:36;;;;;;;8.23;0.90;;;;;;;17.54;81.48;101449.28;7396151;19;20006;-68
2022/05/17 06:24:04;;;;;;;11.32;0.70;;;;;;;17.59;81.34;101450.53;7392050;19;20364;-68
2022/05/17 06:26:31;;;;;;;4.93;0.70;;;;;;;17.58;80.59;101444.41;7397572;19;20014;-69
2022/05/17 06:28:59;;;;;;;9.73;0.80;;;;;;;17.59;80.12;101448.75;7391962;19;20021;-69
2022/05/17 06:31:26;;;;;;;8.98;0.95;;;;;;;17.64;80.15;101440.22;7394484;19;20074;-69
2022/05/17 06:33:54;;;;;;;7.88;1.23;;;;;;;17.70;80.41;101458.94;7391820;19;20033;-69
2022/05/17 06:36:21;;;;;;;10.90;1.00;;;;;;;17.75;79.66;101451.22;7394668;19;20038;-69
2022/05/17 06:38:47;;;;;;;6.32;0.75;;;;;;;17.80;78.80;101448.84;7389222;19;20019;-69
2022/05/17 06:41:15;;;;;;;10.00;1.40;;;;;;;17.82;78.50;101451.34;7391901;19;20011;-69
2022/05/17 06:43:42;;;;;;;4.85;0.73;;;;;;;17.85;78.52;101453.63;7390339;19;20007;-68
2022/05/17 06:46:08;;;;;;;5.63;1.52;;;;;;;17.88;79.18;101451.41;7392504;19;20014;-69
2022/05/17 06:48:35;;;;;;;6.25;1.10;;;;;;;17.92;79.09;101454.53;7393769;19;20027;-69
2022/05/17 06:51:05;;;;;;;8.30;1.33;;;;;;;17.94;78.99;101458.66;7374085;19;20011;-70
2022/05/17 06:56:36;;;;;;;9.55;1.30;;;;;;;18.06;80.73;101456.34;7392942;19;20018;-68
2022/05/17 06:59:05;;;;;;;11.82;1.10;;;;;;;18.11;80.00;101466.44;7395922;19;20380;-68
2022/05/17 07:01:33;;;;;;;5.60;1.23;;;;;;;18.13;79.69;101456.44;7394071;19;19998;-69
2022/05/17 07:04:01;;;;;;;6.18;0.55;;;;;;;18.14;79.05;101461.56;7390657;19;20459;-69
2022/05/17 07:06:28;;;;;;;8.60;0.70;;;;;;;18.14;78.20;101458.06;7394085;19;20014;-69
2022/05/17 07:08:57;;;;;;;3.25;1.00;;;;;;;18.16;78.34;101464.03;7393701;19;20006;-69
2022/05/17 07:13:57;;;;;;;5.13;0.70;;;;;;;18.22;77.53;101453.47;7393288;19;20022;-68
2022/05/17 07:16:25;;;;;;;6.40;0.50;;;;;;;18.24;77.34;101458.59;7391661;19;20346;-68
2022/05/17 07:18:53;;;;;;;7.68;1.08;;;;;;;18.26;77.83;101468.06;7392599;19;20030;-68
2022/05/17 07:21:21;;;;;;;8.77;0.95;;;;;;;18.31;78.36;101459.50;7393326;19;20044;-69
2022/05/17 07:23:49;;;;;;;7.95;0.88;;;;;;;18.41;83.31;101460.03;7391061;19;20649;-67
2022/05/17 07:26:16;;;;;;;7.13;1.20;;;;;;;18.50;85.66;101466.06;7387728;19;20014;-69
2022/05/17 07:28:45;;;;;;;5.43;1.48;;;;;;;18.48;82.94;101466.28;7390238;19;20019;-70
2022/05/17 07:31:13;;;;;;;16.70;5.57;;;;;;;18.50;81.31;101471.41;7390061;19;20014;-69
2022/05/17 07:33:41;;;;;;;6.90;1.60;;;;;;;18.48;80.30;101473.44;7390482;19;20270;-69
2022/05/17 07:36:09;;;;;;;6.75;1.30;;;;;;;18.48;80.20;101479.59;7391033;19;20016;-68
2022/05/17 07:38:37;;;;;;;8.30;1.15;;;;;;;18.46;79.60;101480.78;7387585;19;20037;-68
2022/05/17 07:41:04;;;;;;;7.05;0.90;;;;;;;18.46;79.65;101478.94;7388865;19;20018;-68
2022/05/17 07:43:32;;;;;;;8.30;2.20;;;;;;;18.46;79.14;101483.44;7387497;19;20014;-69
2022/05/17 07:45:59;;;;;;;9.68;1.65;;;;;;;18.48;79.45;101487.59;7391120;19;20006;-68
2022/05/17 07:48:26;;;;;;;13.20;5.32;;;;;;;18.50;80.18;101477.56;7387213;19;20518;-68
2022/05/17 07:50:54;;;;;;;4.43;1.27;;;;;;;18.52;80.22;101477.38;7391771;19;20018;-67
2022/05/17 07:53:22;;;;;;;7.25;0.77;;;;;;;18.55;79.13;101483.19;7390332;19;20042;-69
2022/05/17 07:55:50;;;;;;;6.43;0.70;;;;;;;18.62;79.18;101472.59;7390320;19;20138;-67
2022/05/17 07:58:17;;;;;;;7.88;1.40;;;;;;;18.65;78.63;101469.53;7391002;19;20010;-69
2022/05/17 08:03:16;;;;;;;3.92;0.85;;;;;;;18.91;78.40;101466.31;7392320;19;20007;-68
2022/05/17 08:05:44;;;;;;;5.45;0.90;;;;;;;18.93;77.27;101470.44;7390834;19;20015;-68
2022/05/17 08:08:12;;;;;;;8.38;1.00;;;;;;;18.96;77.21;101477.22;7390689;19;20017;-68
2022/05/17 08:13:07;;;;;;;5.90;0.93;;;;;;;19.10;76.92;101476.31;7392352;19;20038;-69
2022/05/17 08:15:35;;;;;;;8.90;1.30;;;;;;;19.15;76.02;101468.56;7388565;19;20014;-68
2022/05/17 08:18:04;;;;;;;5.55;0.60;;;;;;;19.22;75.97;101472.13;7390114;19;20018;-68
2022/05/17 08:20:33;;;;;;;5.97;0.80;;;;;;;19.28;75.14;101465.19;7387776;19;20019;-67
2022/05/17 08:23:00;;;;;;;47.03;19.17;;;;;;;19.32;74.95;101472.59;7389779;19;20034;-68
2022/05/17 08:27:55;;;;;;;4.90;0.52;;;;;;;19.43;74.61;101465.91;7387291;19;20029;-68
2022/05/17 08:30:24;;;;;;;3.28;0.60;;;;;;;19.44;74.30;101470.22;7388841;19;20101;-69
2022/05/17 08:35:23;;;;;;;4.93;0.80;;;;;;;19.47;73.79;101476.03;7391885;19;20018;-69
2022/05/17 08:37:51;;;;;;;4.20;0.50;;;;;;;19.52;74.07;101475.44;7386977;19;20058;-69
2022/05/17 08:40:21;;;;;;;7.60;0.70;;;;;;;19.59;74.35;101476.31;7386532;19;20022;-68
2022/05/17 08:42:56;;;;;;;6.72;0.70;;;;;;;19.66;74.61;101471.03;7392992;19;20388;-68
2022/05/17 08:45:33;;;;;;;6.35;1.15;;;;;;;19.76;73.89;101466.16;7389137;19;20010;-68
2022/05/17 08:48:02;;;;;;;3.33;0.40;;;;;;;19.86;73.35;101469.28;7388416;19;20506;-69
2022/05/17 08:50:54;;;;;;;5.35;0.57;;;;;;;19.95;72.70;101458.25;7390636;19;20010;-70
2022/05/17 08:53:22;;;;;;;5.35;0.50;;;;;;;20.10;73.11;101459.94;7389210;19;20507;-69
2022/05/17 08:55:50;;;;;;;5.90;0.50;;;;;;;20.16;72.52;101457.31;7388775;19;20021;-68
2022/05/17 08:58:24;;;;;;;3.88;0.50;;;;;;;20.26;71.95;101459.59;7386986;19;20010;-69
2022/05/17 09:00:59;;;;;;;6.05;0.70;;;;;;;20.35;71.34;101458.41;7390463;19;20321;-68
2022/05/17 09:03:38;;;;;;;7.15;1.17;;;;;;;20.44;70.20;101460.69;7388376;19;20153;-70
2022/05/17 09:06:06;;;;;;;4.10;0.40;;;;;;;20.68;69.31;101453.13;7391393;19;20034;-68
2022/05/17 09:08:34;;;;;;;5.40;0.50;;;;;;;21.05;67.73;101449.88;7391177;19;20015;-68
2022/05/17 09:11:09;;;;;;;9.25;0.50;;;;;;;21.43;66.63;101449.25;7388991;19;20022;-68
2022/05/17 09:13:41;;;;;;;2.42;0.40;;;;;;;21.70;65.15;101457.00;7386831;19;20082;-68
2022/05/17 09:16:10;;;;;;;2.35;0.30;;;;;;;21.85;65.14;101447.88;7388457;19;20015;-69
2022/05/17 09:18:39;;;;;;;8.85;0.60;;;;;;;21.89;64.25;101451.81;7390927;19;20014;-69
2022/05/17 09:21:24;;;;;;;5.40;0.40;;;;;;;21.87;64.46;101440.47;7386631;19;20050;-68
2022/05/17 09:23:51;;;;;;;2.15;0.40;;;;;;;21.89;64.30;101447.25;7387734;19;20547;-68
2022/05/17 09:26:19;;;;;;;3.88;0.70;;;;;;;21.84;63.88;101451.63;7384788;19;20033;-70
2022/05/17 09:29:00;;;;;;;6.40;0.75;;;;;;;21.75;64.11;101446.47;7386683;19;20030;-67
2022/05/17 09:31:33;;;;;;;6.00;0.63;;;;;;;21.78;64.04;101445.25;7386204;19;20011;-68
2022/05/17 09:34:05;;;;;;;4.78;0.50;;;;;;;21.86;63.35;101454.91;7387404;19;20027;-69
2022/05/17 09:36:43;;;;;;;3.20;0.80;;;;;;;21.91;62.80;101444.38;7386428;19;20018;-69
2022/05/17 09:39:11;;;;;;;6.18;0.80;;;;;;;21.88;62.09;101447.50;7386982;19;20014;-69
2022/05/17 09:41:41;;;;;;;2.88;0.50;;;;;;;21.81;61.99;101444.00;7385139;19;20023;-69
2022/05/17 09:44:29;;;;;;;4.65;1.35;;;;;;;21.71;62.53;101431.88;7384868;19;20479;-68
2022/05/17 09:47:18;;;;;;;5.30;0.50;;;;;;;21.71;62.18;101436.41;7389968;19;20037;-68
2022/05/17 09:54:53;;;;;;;4.88;0.70;;;;;;;21.86;60.75;101425.41;7391873;19;20487;-70
2022/05/17 09:57:22;;;;;;;2.10;0.52;;;;;;;21.95;61.24;101424.19;7393165;19;20011;-69
2022/05/17 09:59:50;;;;;;;1.77;0.30;;;;;;;22.06;59.91;101420.84;7395858;19;20460;-68
2022/05/17 10:02:32;;;;;;;3.70;0.40;;;;;;;22.19;60.41;101428.81;7395043;19;20026;-68
2022/05/17 10:05:13;;;;;;;5.05;0.70;;;;;;;22.27;59.66;101423.19;7393492;19;20007;-70
2022/05/17 10:07:40;;;;;;;4.47;0.50;;;;;;;22.37;58.32;101418.19;7393486;19;20392;-68
2022/05/17 10:10:20;;;;;;;3.72;0.40;;;;;;;22.50;57.22;101418.09;7396566;19;20018;-68
2022/05/17 10:13:08;;;;;;;2.55;0.50;;;;;;;22.58;57.37;101412.47;7390376;19;20010;-68
2022/05/17 10:15:37;;;;;;;4.07;0.32;;;;;;;22.60;56.80;101415.75;7393121;19;20033;-68
2022/05/17 10:18:17;;;;;;;4.22;0.60;;;;;;;22.64;55.03;101407.28;7393637;19;20506;-68
2022/05/17 10:20:49;;;;;;;6.38;0.70;;;;;;;22.65;53.65;101404.41;7393709;19;20039;-68
2022/05/17 10:23:24;;;;;;;2.80;0.40;;;;;;;22.73;54.52;101401.47;7394458;19;20492;-69
2022/05/17 10:25:56;;;;;;;6.20;0.70;;;;;;;22.76;53.94;101398.31;7391144;19;20032;-70
2022/05/17 10:28:32;;;;;;;6.00;0.60;;;;;;;22.75;52.51;101391.34;7388334;19;20014;-67
2022/05/17 10:31:11;;;;;;;1.42;0.30;;;;;;;22.72;52.65;101391.75;7393200;19;20025;-68
2022/05/17 10:33:48;;;;;;;5.55;0.60;;;;;;;22.77;53.09;101399.97;7393429;19;20126;-68
2022/05/17 10:36:23;;;;;;;6.22;0.95;;;;;;;22.82;53.36;101393.94;7392995;19;20021;-68
2022/05/17 10:38:59;;;;;;;4.32;0.40;;;;;;;22.88;53.22;101383.16;7391501;19;20022;-69
2022/05/17 10:41:26;;;;;;;3.60;0.50;;;;;;;22.91;53.41;101389.94;7395459;19;20015;-68
2022/05/17 10:43:54;;;;;;;8.90;0.40;;;;;;;22.95;53.33;101377.75;7393690;19;20049;-69
2022/05/17 10:46:29;;;;;;;1.58;0.20;;;;;;;22.98;52.81;101377.28;7393936;19;20007;-69
2022/05/17 10:48:58;;;;;;;7.65;1.98;;;;;;;22.98;54.08;101372.75;7392967;19;20014;-69
2022/05/17 10:51:33;;;;;;;6.30;0.80;;;;;;;22.97;53.50;101362.22;7396478;19;20015;-68
2022/05/17 10:54:08;;;;;;;3.83;0.50;;;;;;;23.02;55.66;101360.50;7393957;19;20297;-68
2022/05/17 10:56:39;;;;;;;4.03;0.43;;;;;;;23.05;53.50;101359.25;7393138;19;20033;-68
2022/05/17 10:59:13;;;;;;;3.42;0.40;;;;;;;23.10;53.49;101348.69;7392870;19;20396;-67
2022/05/17 11:02:02;;;;;;;2.20;0.40;;;;;;;23.12;52.29;101341.19;7392564;19;20006;-70
2022/05/17 11:04:37;;;;;;;46.55;21.00;;;;;;;23.13;52.25;101350.09;7393780;19;20037;-68
2022/05/17 11:07:09;;;;;;;3.95;1.00;;;;;;;23.15;51.94;101356.06;7390817;19;20025;-68
2022/05/17 11:09:42;;;;;;;2.25;0.50;;;;;;;23.15;52.17;101348.84;7393684;19;20006;-69
2022/05/17 11:12:12;;;;;;;7.38;0.63;;;;;;;23.20;52.69;101338.25;7390755;19;20010;-69
2022/05/17 11:14:44;;;;;;;3.67;0.40;;;;;;;23.22;51.71;101341.50;7389491;19;20025;-68
2022/05/17 11:17:13;;;;;;;5.47;0.50;;;;;;;23.21;51.75;101350.59;7387559;19;20059;-69
2022/05/17 11:19:44;;;;;;;3.47;0.70;;;;;;;23.23;51.86;101347.69;7391432;19;20015;-70
2022/05/17 11:22:35;;;;;;;2.50;0.30;;;;;;;23.28;50.84;101342.47;7394819;19;20018;-69
2022/05/17 11:25:24;;;;;;;4.72;0.60;;;;;;;23.34;50.84;101339.72;7388340;19;20014;-69
2022/05/17 11:27:57;;;;;;;3.75;0.30;;;;;;;23.35;50.74;101329.81;7395562;19;20085;-68
2022/05/17 11:30:30;;;;;;;3.90;0.40;;;;;;;23.36;51.17;101337.66;7392251;19;20385;-69
2022/05/17 11:33:03;;;;;;;3.90;0.60;;;;;;;23.41;51.12;101328.91;7392631;19;20006;-68
2022/05/17 11:35:31;;;;;;;3.05;0.30;;;;;;;23.46;50.74;101330.97;7389386;19;20130;-69
2022/05/17 11:37:59;;;;;;;5.65;0.30;;;;;;;23.50;51.13;101330.28;7389377;19;20007;-69
2022/05/17 11:40:38;;;;;;;2.58;0.30;;;;;;;23.53;50.48;101329.00;7391267;19;20664;-68
2022/05/17 11:48:16;;;;;;;5.00;0.65;;;;;;;23.68;50.88;101314.13;7391231;19;20014;-68
2022/05/17 11:51:02;;;;;;;4.82;0.40;;;;;;;23.68;50.58;101316.78;7388805;19;20022;-68
2022/05/17 11:53:39;;;;;;;2.60;0.50;;;;;;;23.74;50.24;101315.91;7391513;19;20007;-69
2022/05/17 11:56:11;;;;;;;2.22;0.50;;;;;;;23.77;50.58;101299.31;7388925;19;20010;-69
2022/05/17 11:58:38;;;;;;;3.58;0.47;;;;;;;23.80;50.00;101298.03;7391019;19;20150;-69
2022/05/17 12:01:11;;;;;;;2.78;0.47;;;;;;;23.82;51.08;101294.06;7390067;19;20031;-70
2022/05/17 12:03:41;;;;;;;;;;;;;;;23.89;50.82;101293.97;7391648;19;20022;-68
2022/05/17 12:06:12;;;;;;;3.83;0.43;;;;;;;23.86;50.38;101286.38;7392198;19;19930;-68